Time;durP1;ratioP1;P1;durP2;ratioP2;P2;SDS_P1;SDS_P2;PMS_P1;PMS_P2;Temp;Humidity;BMP_temperature;BMP_pressure;BME280_temperature;BME280_humidity;BME280_pressure;Samples;Min_cycle;Max_cycle;Signal;HPM_P1;HPM_P2
2021/11/10 00:00:49;;;;;;;14.10;9.27;;;8.80;57.50;;;;;;5007566;28;20224;-46
2021/11/10 00:03:14;;;;;;;12.80;9.10;;;8.70;56.90;;;;;;5011260;28;20190;-46
2021/11/10 00:05:40;;;;;;;14.33;9.67;;;8.70;57.10;;;;;;5010119;28;20568;-49
2021/11/10 00:08:06;;;;;;;12.90;9.00;;;8.60;57.10;;;;;;5012070;28;20594;-47
2021/11/10 00:10:33;;;;;;;10.87;8.60;;;8.60;57.40;;;;;;5011721;28;20194;-49
2021/11/10 00:13:18;;;;;;;10.87;8.17;;;8.60;57.20;;;;;;5011269;28;20448;-48
2021/11/10 00:15:46;;;;;;;12.30;7.90;;;8.60;57.20;;;;;;5009826;28;20443;-49
2021/11/10 00:18:13;;;;;;;13.03;7.90;;;8.70;57.00;;;;;;5001864;28;20547;-50
2021/11/10 00:20:39;;;;;;;12.30;7.47;;;8.80;56.80;;;;;;5010965;28;21006;-46
2021/11/10 00:23:04;;;;;;;10.60;7.07;;;8.80;56.40;;;;;;5010250;28;20460;-50
2021/11/10 00:25:30;;;;;;;10.17;7.53;;;8.90;56.20;;;;;;5009716;28;20468;-49
2021/11/10 00:27:55;;;;;;;10.10;6.70;;;8.90;56.00;;;;;;5009486;28;20194;-50
2021/11/10 00:30:21;;;;;;;11.90;7.60;;;8.80;55.90;;;;;;5006888;28;20194;-47
2021/11/10 00:32:46;;;;;;;13.93;7.90;;;8.60;56.30;;;;;;5007528;28;20244;-47
2021/11/10 00:35:12;;;;;;;10.30;7.40;;;8.50;56.40;;;;;;5008436;28;20273;-48
2021/11/10 00:37:38;;;;;;;11.33;7.10;;;8.40;56.50;;;;;;5006851;28;20628;-50
2021/11/10 00:40:04;;;;;;;8.60;6.10;;;8.50;56.40;;;;;;5005736;28;20189;-46
2021/11/10 00:42:29;;;;;;;9.40;7.03;;;8.50;56.30;;;;;;5005019;28;20196;-49
2021/11/10 00:44:55;;;;;;;7.53;6.37;;;8.60;56.30;;;;;;5005217;28;20441;-47
2021/11/10 00:47:20;;;;;;;9.57;6.93;;;8.60;56.30;;;;;;5005242;28;20277;-49
2021/11/10 00:49:46;;;;;;;10.80;7.53;;;8.70;56.40;;;;;;5005045;28;20252;-47
2021/11/10 00:52:12;;;;;;;11.70;7.23;;;8.70;56.50;;;;;;5005440;28;20277;-46
2021/11/10 00:54:37;;;;;;;10.10;6.20;;;8.70;56.50;;;;;;5001912;28;20198;-45
2021/11/10 00:57:03;;;;;;;9.53;7.93;;;8.70;56.50;;;;;;5005070;28;20226;-49
2021/11/10 00:59:29;;;;;;;13.80;8.00;;;8.80;56.50;;;;;;5003774;28;20198;-49
2021/11/10 01:01:54;;;;;;;11.90;8.37;;;8.70;56.50;;;;;;5006288;28;20483;-47
2021/11/10 01:04:21;;;;;;;12.87;7.93;;;8.70;56.50;;;;;;5008362;28;20248;-49
2021/11/10 01:06:47;;;;;;;11.07;7.53;;;8.80;56.50;;;;;;5008833;28;20213;-49
2021/11/10 01:09:17;;;;;;;8.47;7.20;;;8.70;56.30;;;;;;5006408;28;20508;-46
2021/11/10 01:11:45;;;;;;;11.70;7.57;;;8.70;56.10;;;;;;4991318;28;20441;-49
2021/11/10 01:14:12;;;;;;;12.73;7.40;;;8.40;57.60;;;;;;5006399;28;20544;-46
2021/11/10 01:16:38;;;;;;;9.60;7.90;;;8.40;57.40;;;;;;5013413;28;20571;-49
2021/11/10 01:19:04;;;;;;;12.33;7.50;;;8.50;57.30;;;;;;5008085;28;20948;-49
2021/11/10 01:21:29;;;;;;;13.13;8.00;;;8.50;57.00;;;;;;5013059;28;20193;-49
2021/11/10 01:23:55;;;;;;;8.47;6.37;;;8.60;56.70;;;;;;5007651;28;20194;-46
2021/11/10 01:26:21;;;;;;;10.90;6.20;;;8.60;56.30;;;;;;5011234;28;20213;-48
2021/11/10 01:28:46;;;;;;;10.50;7.40;;;8.60;55.90;;;;;;5014134;28;20185;-49
2021/11/10 01:31:12;;;;;;;9.47;6.97;;;8.70;55.90;;;;;;5010433;28;20264;-50
2021/11/10 01:33:38;;;;;;;7.93;6.90;;;8.70;55.60;;;;;;5010457;28;20202;-46
2021/11/10 01:36:03;;;;;;;9.20;7.00;;;8.30;55.90;;;;;;5011091;28;20194;-46
2021/11/10 01:38:29;;;;;;;11.43;8.10;;;8.20;57.10;;;;;;5014172;28;20229;-47
2021/11/10 01:40:55;;;;;;;9.70;6.73;;;8.20;56.90;;;;;;5007299;28;20194;-50
2021/11/10 01:43:20;;;;;;;8.93;6.60;;;8.40;56.70;;;;;;5012481;28;20259;-49
2021/11/10 01:45:46;;;;;;;10.57;6.43;;;8.50;56.40;;;;;;5011698;28;20197;-47
2021/11/10 01:48:13;;;;;;;11.33;7.10;;;8.50;56.10;;;;;;5009042;28;20208;-45
2021/11/10 01:50:39;;;;;;;8.40;6.97;;;8.50;56.00;;;;;;5013337;28;20433;-47
2021/11/10 01:53:04;;;;;;;16.13;7.17;;;8.50;55.90;;;;;;5007919;28;20432;-46
2021/11/10 01:55:30;;;;;;;9.47;6.10;;;8.50;55.90;;;;;;5011753;28;20192;-49
2021/11/10 01:57:56;;;;;;;8.93;6.43;;;8.40;56.20;;;;;;5008037;28;20291;-46
2021/11/10 02:00:26;;;;;;;8.30;6.83;;;8.30;56.30;;;;;;5008907;28;20923;-48
2021/11/10 02:02:53;;;;;;;8.40;7.20;;;8.40;56.20;;;;;;5006568;28;20464;-45
2021/11/10 02:05:20;;;;;;;7.40;6.50;;;8.40;56.00;;;;;;5006747;28;20507;-46
2021/11/10 02:07:47;;;;;;;8.83;6.90;;;8.40;55.90;;;;;;5010383;28;20480;-47
2021/11/10 02:10:15;;;;;;;11.33;5.97;;;8.40;55.90;;;;;;5013071;28;20433;-45
2021/11/10 02:12:42;;;;;;;9.30;7.30;;;8.40;55.80;;;;;;5012322;28;20452;-48
2021/11/10 02:15:12;;;;;;;8.07;5.83;;;8.30;55.70;;;;;;5001707;28;20440;-45
2021/11/10 02:17:38;;;;;;;9.70;6.53;;;8.30;55.80;;;;;;5013655;28;20518;-46
2021/11/10 02:20:07;;;;;;;12.47;6.90;;;8.30;55.90;;;;;;5012845;28;20452;-49
2021/11/10 02:22:33;;;;;;;8.87;6.53;;;8.30;55.90;;;;;;5013787;28;20186;-50
2021/11/10 02:25:01;;;;;;;11.57;6.67;;;8.00;56.40;;;;;;5012103;28;20456;-48
2021/11/10 02:27:33;;;;;;;8.07;6.60;;;7.70;57.60;;;;;;5012993;28;20503;-46
2021/11/10 02:29:58;;;;;;;13.33;7.13;;;7.70;58.00;;;;;;5011685;28;21237;-47
2021/11/10 02:32:24;;;;;;;7.07;6.20;;;7.60;58.00;;;;;;5013372;28;20524;-50
2021/11/10 02:34:50;;;;;;;10.70;7.13;;;7.60;58.00;;;;;;5012603;28;20190;-49
2021/11/10 02:37:18;;;;;;;9.83;6.50;;;7.50;58.20;;;;;;5012787;28;20659;-48
2021/11/10 02:39:44;;;;;;;9.30;6.17;;;7.40;58.30;;;;;;5013589;28;20264;-47
2021/11/10 02:42:10;;;;;;;7.23;5.97;;;7.50;58.60;;;;;;5010715;28;20429;-45
2021/11/10 02:44:36;;;;;;;7.73;5.90;;;7.50;58.40;;;;;;5011866;28;20444;-48
2021/11/10 02:47:04;;;;;;;13.23;6.60;;;7.50;58.50;;;;;;5012587;28;20244;-45
2021/11/10 02:49:30;;;;;;;9.90;6.90;;;7.50;58.40;;;;;;5012753;28;20217;-45
2021/11/10 02:52:09;;;;;;;8.20;6.33;;;7.30;58.40;;;;;;5011922;28;20433;-46
2021/11/10 02:54:40;;;;;;;9.57;6.50;;;7.10;59.20;;;;;;5012201;28;20213;-46
2021/11/10 02:57:07;;;;;;;9.07;7.00;;;6.90;59.90;;;;;;5011538;28;20554;-45
2021/11/10 02:59:33;;;;;;;9.37;6.37;;;7.00;60.30;;;;;;5011865;28;20524;-46
2021/11/10 03:02:00;;;;;;;6.90;5.90;;;6.60;60.40;;;;;;5010845;28;20919;-45
2021/11/10 03:04:28;;;;;;;8.43;6.47;;;6.60;61.50;;;;;;5011843;28;20948;-46
2021/11/10 03:06:55;;;;;;;8.10;6.53;;;6.80;61.30;;;;;;5011019;28;20436;-46
2021/11/10 03:09:23;;;;;;;7.30;6.33;;;7.00;60.70;;;;;;5010065;28;20611;-46
2021/11/10 03:11:51;;;;;;;6.60;5.60;;;7.10;60.10;;;;;;5007581;28;21082;-45
2021/11/10 03:14:17;;;;;;;9.47;6.60;;;7.10;60.60;;;;;;5007330;28;20460;-46
2021/11/10 03:16:43;;;;;;;8.20;6.43;;;7.20;60.40;;;;;;5010392;28;20453;-45
2021/11/10 03:19:09;;;;;;;9.53;6.50;;;7.20;59.90;;;;;;5012873;28;20456;-45
2021/11/10 03:21:35;;;;;;;5.90;5.40;;;7.20;59.90;;;;;;5011447;28;20567;-46
2021/11/10 03:24:01;;;;;;;8.37;6.93;;;7.20;59.90;;;;;;5009314;28;20465;-45
2021/11/10 03:26:27;;;;;;;8.50;5.97;;;7.00;60.40;;;;;;5005156;28;20444;-45
2021/11/10 03:28:53;;;;;;;5.90;5.40;;;6.90;61.30;;;;;;5007111;28;20539;-45
2021/11/10 03:31:18;;;;;;;9.60;7.10;;;6.60;62.90;;;;;;5011825;28;20272;-46
2021/11/10 03:33:44;;;;;;;9.03;6.67;;;6.40;63.10;;;;;;5006132;28;20582;-46
2021/11/10 03:36:10;;;;;;;15.77;6.93;;;6.10;63.70;;;;;;5006904;28;20193;-45
2021/11/10 03:38:35;;;;;;;8.60;6.63;;;5.70;65.30;;;;;;5008686;28;20217;-46
2021/11/10 03:41:01;;;;;;;6.90;6.20;;;5.50;66.90;;;;;;5010686;28;20205;-46
2021/11/10 03:43:27;;;;;;;16.67;6.30;;;5.40;67.90;;;;;;5003751;28;21142;-47
2021/11/10 03:45:52;;;;;;;8.70;6.30;;;5.80;67.40;;;;;;5009364;28;20205;-45
2021/11/10 03:48:18;;;;;;;7.77;6.27;;;6.10;66.20;;;;;;5009827;28;20260;-45
2021/11/10 03:50:44;;;;;;;8.30;6.23;;;6.30;65.10;;;;;;5009565;28;20190;-47
2021/11/10 03:53:10;;;;;;;12.30;6.63;;;6.40;64.40;;;;;;5002971;28;20188;-45
2021/11/10 03:55:36;;;;;;;8.33;6.67;;;6.50;64.00;;;;;;5009296;28;20450;-45
2021/11/10 03:58:10;;;;;;;7.30;6.60;;;6.60;63.70;;;;;;5009503;28;20488;-45
2021/11/10 04:00:36;;;;;;;9.40;6.93;;;6.50;63.70;;;;;;5009258;28;20198;-47
2021/11/10 04:03:02;;;;;;;6.87;5.90;;;6.30;63.90;;;;;;5007472;28;20444;-46
2021/11/10 04:05:28;;;;;;;8.07;6.00;;;6.50;64.50;;;;;;5004721;28;20213;-45
2021/11/10 04:07:54;;;;;;;8.00;5.90;;;6.80;63.60;;;;;;5003937;28;20449;-45
2021/11/10 04:10:21;;;;;;;9.50;6.60;;;6.90;62.80;;;;;;5010807;28;20200;-50
2021/11/10 04:12:46;;;;;;;9.03;6.50;;;6.90;62.10;;;;;;5010218;28;20441;-45
2021/11/10 04:15:12;;;;;;;9.53;6.27;;;6.80;62.50;;;;;;5010419;28;20447;-47
2021/11/10 04:17:38;;;;;;;8.17;6.57;;;6.80;62.70;;;;;;5010757;28;20309;-48
2021/11/10 04:20:05;;;;;;;9.13;6.33;;;7.00;62.40;;;;;;5007602;28;20277;-48
2021/11/10 04:22:31;;;;;;;10.07;6.23;;;7.10;61.70;;;;;;5012208;28;20232;-47
2021/11/10 04:24:56;;;;;;;9.83;7.57;;;7.20;60.90;;;;;;5009877;28;20460;-48
2021/11/10 04:27:22;;;;;;;9.40;7.13;;;6.90;61.30;;;;;;5007413;28;20268;-46
2021/11/10 04:29:48;;;;;;;10.03;7.23;;;7.10;61.30;;;;;;5008086;28;20309;-46
2021/11/10 04:32:14;;;;;;;12.50;6.13;;;7.20;61.00;;;;;;4982775;28;20400;-46
2021/11/10 04:34:40;;;;;;;10.10;6.33;;;6.90;61.20;;;;;;5003014;28;20924;-48
2021/11/10 04:37:06;;;;;;;8.23;6.73;;;7.00;61.30;;;;;;5005231;28;20504;-46
2021/11/10 04:39:33;;;;;;;11.70;6.47;;;7.00;61.30;;;;;;5006401;28;20186;-45
2021/11/10 04:41:59;;;;;;;9.37;6.27;;;7.00;61.10;;;;;;5002200;28;20452;-47
2021/11/10 04:44:24;;;;;;;8.67;6.30;;;7.10;61.10;;;;;;5006091;28;20449;-46
2021/11/10 04:46:52;;;;;;;10.30;6.67;;;6.90;60.80;;;;;;5008662;28;20198;-46
2021/11/10 04:49:17;;;;;;;10.30;7.43;;;7.00;61.00;;;;;;5008050;28;20476;-48
2021/11/10 04:51:44;;;;;;;8.80;6.90;;;7.10;60.50;;;;;;5006016;28;20519;-46
2021/11/10 04:54:13;;;;;;;9.63;6.40;;;7.30;60.00;;;;;;5008498;28;20209;-46
2021/11/10 04:56:40;;;;;;;16.50;7.20;;;7.30;59.80;;;;;;5009249;28;20461;-47
2021/11/10 04:59:07;;;;;;;9.07;6.63;;;7.30;59.70;;;;;;5006692;28;20502;-47
2021/11/10 05:01:42;;;;;;;8.90;7.20;;;7.30;59.50;;;;;;5006703;28;20451;-46
2021/11/10 05:04:08;;;;;;;14.20;8.03;;;7.30;59.70;;;;;;5006628;28;20456;-46
2021/11/10 05:06:34;;;;;;;9.67;6.90;;;7.30;59.60;;;;;;5010011;28;20532;-46
2021/11/10 05:09:00;;;;;;;9.10;7.50;;;7.40;59.60;;;;;;5005627;28;20479;-47
2021/11/10 05:11:26;;;;;;;9.50;6.83;;;7.40;59.50;;;;;;5008540;28;20437;-46
2021/11/10 05:13:52;;;;;;;9.77;7.00;;;7.30;59.40;;;;;;5010108;28;20284;-47
2021/11/10 05:16:18;;;;;;;9.53;6.30;;;7.30;59.30;;;;;;4990979;28;20526;-46
2021/11/10 05:18:45;;;;;;;7.70;6.63;;;7.10;59.30;;;;;;5007658;28;20485;-45
2021/11/10 05:21:10;;;;;;;7.80;6.40;;;7.10;59.50;;;;;;5007237;28;20433;-45
2021/11/10 05:23:36;;;;;;;7.77;6.40;;;7.10;59.30;;;;;;5009703;28;20765;-46
2021/11/10 05:26:03;;;;;;;11.37;6.30;;;7.10;59.40;;;;;;5008384;28;20202;-47
2021/11/10 05:28:29;;;;;;;12.87;6.47;;;7.00;59.30;;;;;;5004666;28;20803;-45
2021/11/10 05:30:54;;;;;;;8.93;6.50;;;6.90;59.60;;;;;;5005530;28;20452;-46
2021/11/10 05:33:20;;;;;;;9.93;6.93;;;6.90;59.60;;;;;;5005610;28;20194;-46
2021/11/10 05:35:46;;;;;;;11.33;7.30;;;6.60;59.90;;;;;;5007796;28;20201;-47
2021/11/10 05:38:12;;;;;;;9.03;7.00;;;6.60;60.70;;;;;;5008702;28;20320;-49
2021/11/10 05:40:38;;;;;;;9.93;7.30;;;6.70;60.70;;;;;;5006390;28;20190;-50
2021/11/10 05:43:05;;;;;;;8.70;7.30;;;6.70;60.10;;;;;;5006788;28;20449;-49
2021/11/10 05:45:32;;;;;;;12.33;7.80;;;6.70;60.20;;;;;;5003704;28;20193;-50
2021/11/10 05:47:58;;;;;;;9.00;7.40;;;6.60;60.70;;;;;;5007001;28;20440;-45
2021/11/10 05:50:24;;;;;;;11.80;8.67;;;6.60;61.10;;;;;;5008804;28;20541;-46
2021/11/10 05:52:50;;;;;;;15.07;7.60;;;6.70;60.80;;;;;;5006080;28;20587;-45
2021/11/10 05:55:16;;;;;;;8.30;7.00;;;6.80;60.70;;;;;;4987340;28;20749;-44
2021/11/10 05:57:42;;;;;;;8.70;6.53;;;6.80;60.40;;;;;;5008446;28;20516;-45
2021/11/10 06:00:11;;;;;;;12.37;7.23;;;6.80;60.30;;;;;;5008493;28;20437;-45
2021/11/10 06:02:38;;;;;;;7.67;6.87;;;6.80;60.50;;;;;;5007624;28;20459;-47
2021/11/10 06:05:04;;;;;;;9.10;7.27;;;6.70;60.80;;;;;;5007239;28;20937;-45
2021/11/10 06:07:30;;;;;;;11.00;7.00;;;6.50;61.20;;;;;;5009682;28;20448;-45
2021/11/10 06:09:56;;;;;;;10.47;7.60;;;6.50;61.60;;;;;;5007259;28;20476;-46
2021/11/10 06:12:21;;;;;;;10.57;7.50;;;6.70;61.40;;;;;;5012741;28;20287;-45
2021/11/10 06:14:47;;;;;;;7.80;6.07;;;6.60;61.70;;;;;;5011268;28;20202;-45
2021/11/10 06:17:12;;;;;;;9.50;6.40;;;6.70;61.40;;;;;;5012310;28;20562;-47
2021/11/10 06:19:38;;;;;;;8.70;7.80;;;6.80;63.30;;;;;;5012753;28;20276;-45
2021/11/10 06:22:04;;;;;;;8.47;7.10;;;7.00;63.60;;;;;;5009511;28;20642;-46
2021/11/10 06:24:30;;;;;;;9.17;7.13;;;7.40;64.60;;;;;;5010755;28;20193;-46
2021/11/10 06:26:56;;;;;;;12.83;7.43;;;7.80;64.90;;;;;;5010754;28;20535;-46
2021/11/10 06:29:23;;;;;;;10.73;7.30;;;8.20;63.30;;;;;;5011206;28;20450;-45
2021/11/10 06:31:50;;;;;;;8.57;7.40;;;8.40;60.10;;;;;;5003970;28;20452;-47
2021/11/10 06:34:16;;;;;;;8.00;6.20;;;8.30;58.20;;;;;;5003472;28;20455;-45
2021/11/10 06:36:42;;;;;;;8.53;7.13;;;8.20;58.80;;;;;;4988055;28;20562;-49
2021/11/10 06:39:08;;;;;;;7.97;6.33;;;8.40;59.10;;;;;;5006710;28;20552;-45
2021/11/10 06:41:34;;;;;;;10.00;7.57;;;8.60;58.70;;;;;;5009427;28;20547;-45
2021/11/10 06:44:00;;;;;;;8.70;6.97;;;8.60;58.10;;;;;;5011463;28;20523;-45
2021/11/10 06:46:26;;;;;;;8.20;6.97;;;8.70;57.70;;;;;;5011435;28;20445;-46
2021/11/10 06:48:52;;;;;;;7.33;6.53;;;8.70;56.50;;;;;;5013249;28;20464;-47
2021/11/10 06:51:17;;;;;;;8.03;7.13;;;8.70;57.00;;;;;;5010295;28;20201;-50
2021/11/10 06:53:43;;;;;;;8.70;6.70;;;8.80;56.50;;;;;;5013486;28;20210;-45
2021/11/10 06:56:10;;;;;;;8.30;7.30;;;9.00;56.50;;;;;;5008827;28;20202;-46
2021/11/10 06:58:35;;;;;;;10.10;7.43;;;9.10;56.40;;;;;;5013063;28;20575;-46
2021/11/10 07:01:02;;;;;;;9.60;7.27;;;9.20;56.40;;;;;;5010713;28;20520;-47
2021/11/10 07:03:29;;;;;;;8.03;6.67;;;9.30;55.50;;;;;;5012782;28;20190;-45
2021/11/10 07:05:54;;;;;;;8.77;7.17;;;9.60;55.50;;;;;;5011672;28;20459;-45
2021/11/10 07:08:20;;;;;;;10.70;7.17;;;9.80;55.10;;;;;;5012336;28;20468;-45
2021/11/10 07:10:46;;;;;;;12.10;7.63;;;10.00;53.30;;;;;;5011542;28;20186;-46
2021/11/10 07:13:11;;;;;;;12.33;7.40;;;10.00;52.30;;;;;;5009133;28;20688;-46
2021/11/10 07:15:37;;;;;;;9.70;7.57;;;10.10;52.60;;;;;;5011477;28;20256;-47
2021/11/10 07:18:03;;;;;;;8.37;7.30;;;9.80;53.00;;;;;;5011290;28;20225;-46
2021/11/10 07:20:28;;;;;;;7.40;6.70;;;8.80;54.70;;;;;;5011568;28;20572;-46
2021/11/10 07:22:58;;;;;;;10.80;7.47;;;8.40;56.50;;;;;;5009289;28;20190;-45
2021/11/10 07:25:24;;;;;;;9.23;6.90;;;8.50;57.60;;;;;;5007770;28;20209;-46
2021/11/10 07:27:50;;;;;;;10.80;7.87;;;8.80;57.20;;;;;;5011120;28;20465;-45
2021/11/10 07:30:16;;;;;;;8.97;6.30;;;9.20;56.90;;;;;;5009465;28;20975;-46
2021/11/10 07:32:42;;;;;;;10.40;7.73;;;9.40;56.30;;;;;;5009748;28;20201;-46
2021/11/10 07:35:10;;;;;;;11.37;7.60;;;9.50;55.50;;;;;;5010871;28;20772;-46
2021/11/10 07:37:36;;;;;;;11.27;8.00;;;9.50;56.10;;;;;;5011234;28;20480;-46
2021/11/10 07:40:04;;;;;;;8.60;6.60;;;9.50;55.50;;;;;;5010011;28;20435;-45
2021/11/10 07:42:32;;;;;;;8.63;7.73;;;9.70;56.00;;;;;;5001424;28;20519;-46
2021/11/10 07:45:06;;;;;;;9.43;8.43;;;9.90;55.20;;;;;;5010261;28;20793;-46
2021/11/10 07:47:39;;;;;;;9.33;7.53;;;10.00;54.20;;;;;;5008677;28;20444;-46
2021/11/10 07:50:07;;;;;;;8.60;7.50;;;10.10;53.90;;;;;;5008512;28;20808;-46
2021/11/10 07:52:32;;;;;;;10.90;7.30;;;10.00;53.90;;;;;;5006565;28;20456;-46
2021/11/10 07:54:58;;;;;;;11.10;8.20;;;10.00;54.20;;;;;;5010230;28;20912;-45
2021/11/10 07:57:23;;;;;;;7.40;6.70;;;10.00;54.00;;;;;;5012179;28;20230;-45
2021/11/10 07:59:49;;;;;;;7.53;6.70;;;10.20;54.50;;;;;;5011637;28;20201;-47
2021/11/10 08:02:15;;;;;;;8.13;7.13;;;10.40;54.80;;;;;;5009485;28;20190;-45
2021/11/10 08:04:40;;;;;;;9.80;7.50;;;10.40;53.70;;;;;;5011011;28;20198;-46
2021/11/10 08:07:06;;;;;;;8.70;7.83;;;10.20;53.20;;;;;;5011271;28;20293;-45
2021/11/10 08:09:31;;;;;;;10.37;8.13;;;10.20;54.30;;;;;;5007684;28;20234;-47
2021/11/10 08:11:58;;;;;;;9.63;7.97;;;10.00;54.60;;;;;;5005664;28;20229;-48
2021/11/10 08:14:23;;;;;;;12.87;9.73;;;10.10;54.70;;;;;;5001117;28;20244;-45
2021/11/10 08:16:49;;;;;;;11.07;8.10;;;10.10;54.60;;;;;;5002574;28;20931;-44
2021/11/10 08:19:14;;;;;;;11.90;9.07;;;10.20;54.90;;;;;;5011946;28;20221;-45
2021/11/10 08:21:41;;;;;;;14.17;9.40;;;10.50;54.60;;;;;;5009460;28;20198;-46
2021/11/10 08:24:07;;;;;;;13.30;8.20;;;10.60;54.20;;;;;;5010593;28;20194;-48
2021/11/10 08:26:32;;;;;;;9.60;8.37;;;10.60;54.20;;;;;;5008461;28;20499;-45
2021/11/10 08:28:58;;;;;;;10.40;8.90;;;10.50;54.60;;;;;;5011076;28;20217;-45
2021/11/10 08:31:24;;;;;;;13.70;9.00;;;10.60;54.20;;;;;;5006312;28;20605;-50
2021/11/10 08:33:50;;;;;;;10.43;9.33;;;10.60;53.80;;;;;;5007212;28;20544;-49
2021/11/10 08:36:15;;;;;;;16.07;8.70;;;10.50;54.10;;;;;;5002197;28;20202;-49
2021/11/10 08:38:41;;;;;;;11.23;9.13;;;10.60;54.00;;;;;;5009015;28;20635;-49
2021/11/10 08:41:06;;;;;;;12.80;9.30;;;10.80;54.00;;;;;;5009480;28;20642;-49
2021/11/10 08:43:32;;;;;;;15.50;10.27;;;10.90;53.60;;;;;;5011368;28;20190;-49
2021/11/10 08:45:58;;;;;;;10.60;9.17;;;11.10;53.20;;;;;;5016748;28;20201;-48
2021/11/10 08:48:25;;;;;;;13.70;9.70;;;10.80;52.80;;;;;;5011581;28;20574;-46
2021/11/10 08:50:51;;;;;;;12.50;8.60;;;10.90;53.10;;;;;;5010341;28;20822;-48
2021/11/10 08:53:19;;;;;;;10.37;9.20;;;10.70;52.70;;;;;;5011656;28;20579;-48
2021/11/10 08:55:51;;;;;;;12.57;9.73;;;10.80;53.20;;;;;;5011979;28;20495;-46
2021/11/10 08:58:17;;;;;;;13.50;8.87;;;11.10;53.10;;;;;;5009018;28;20524;-47
2021/11/10 09:00:43;;;;;;;15.33;10.67;;;11.30;52.60;;;;;;5011183;28;20421;-48
2021/11/10 09:03:09;;;;;;;9.43;8.43;;;11.40;52.30;;;;;;5010533;28;20448;-48
2021/11/10 09:05:35;;;;;;;10.13;8.93;;;11.50;52.20;;;;;;5010225;28;20524;-48
2021/11/10 09:08:02;;;;;;;10.33;9.20;;;11.60;51.90;;;;;;5013138;28;20483;-50
2021/11/10 09:10:28;;;;;;;16.13;10.73;;;11.60;52.00;;;;;;5010620;28;20515;-50
2021/11/10 09:12:54;;;;;;;14.80;11.03;;;11.70;51.80;;;;;;5011427;28;20436;-49
2021/11/10 09:15:21;;;;;;;18.63;11.07;;;11.80;51.40;;;;;;5009954;28;20205;-49
2021/11/10 09:17:47;;;;;;;12.77;9.67;;;11.70;51.40;;;;;;5016450;28;20290;-49
2021/11/10 09:20:24;;;;;;;12.20;10.03;;;11.70;51.40;;;;;;5010339;28;20441;-49
2021/11/10 09:22:50;;;;;;;14.47;9.80;;;11.80;51.70;;;;;;5011180;28;20937;-49
2021/11/10 09:25:17;;;;;;;12.60;9.23;;;11.50;51.70;;;;;;5009980;28;20436;-49
2021/11/10 09:27:44;;;;;;;12.37;10.80;;;11.60;52.30;;;;;;5016467;28;21240;-49
2021/11/10 09:30:12;;;;;;;16.50;10.50;;;11.70;51.90;;;;;;5017229;28;21133;-47
2021/11/10 09:32:40;;;;;;;13.40;9.87;;;11.80;51.40;;;;;;5010991;28;20465;-49
2021/11/10 09:35:07;;;;;;;19.53;11.33;;;11.90;51.30;;;;;;5008734;28;20520;-48
2021/11/10 09:37:34;;;;;;;10.60;9.50;;;12.00;51.30;;;;;;5013834;28;20491;-45
2021/11/10 09:40:03;;;;;;;13.20;11.07;;;12.10;51.10;;;;;;5014545;28;20433;-48
2021/11/10 09:42:29;;;;;;;23.93;11.70;;;12.20;51.00;;;;;;5008144;28;20895;-46
2021/11/10 09:44:55;;;;;;;15.00;10.53;;;12.20;50.90;;;;;;5008649;28;20429;-49
2021/11/10 09:47:20;;;;;;;11.07;9.90;;;12.30;51.10;;;;;;5013797;28;20487;-47
2021/11/10 09:49:50;;;;;;;14.07;11.13;;;12.30;51.20;;;;;;5014062;28;20557;-48
2021/11/10 09:52:17;;;;;;;13.00;10.40;;;12.30;51.00;;;;;;5014311;28;20189;-48
2021/11/10 09:54:44;;;;;;;13.37;9.60;;;12.40;51.00;;;;;;5013900;28;20523;-46
2021/11/10 09:57:09;;;;;;;12.50;11.20;;;12.50;51.00;;;;;;5011386;28;20906;-48
2021/11/10 09:59:39;;;;;;;11.13;10.03;;;12.40;51.00;;;;;;5013306;28;20527;-49
2021/11/10 10:02:11;;;;;;;15.97;11.07;;;12.50;50.80;;;;;;5011908;28;20198;-50
2021/11/10 10:04:42;;;;;;;16.70;10.20;;;12.60;50.90;;;;;;5003258;28;21152;-49
2021/11/10 10:07:09;;;;;;;15.40;10.70;;;12.60;50.50;;;;;;5009442;28;20515;-49
2021/11/10 10:09:36;;;;;;;13.53;11.43;;;12.60;50.80;;;;;;5010451;28;20473;-46
2021/11/10 10:12:03;;;;;;;16.20;10.77;;;12.60;50.90;;;;;;5008128;28;20846;-48
2021/11/10 10:14:29;;;;;;;16.33;12.47;;;12.70;50.70;;;;;;5012802;28;20433;-46
2021/11/10 10:16:55;;;;;;;15.67;13.03;;;12.70;50.90;;;;;;5010446;28;20448;-46
2021/11/10 10:19:21;;;;;;;16.70;11.80;;;12.70;50.90;;;;;;5013339;28;20190;-47
2021/11/10 10:22:01;;;;;;;20.80;12.73;;;12.80;51.00;;;;;;5011779;28;20483;-48
2021/11/10 10:24:27;;;;;;;24.37;13.90;;;12.90;51.00;;;;;;5010220;28;20443;-50
2021/11/10 10:26:53;;;;;;;16.63;13.50;;;12.90;50.80;;;;;;5010924;28;20432;-50
2021/11/10 10:29:18;;;;;;;14.23;11.20;;;13.00;50.60;;;;;;5012057;28;20217;-48
2021/11/10 10:31:46;;;;;;;15.87;12.67;;;13.00;50.50;;;;;;5011003;28;20202;-49
2021/11/10 10:34:15;;;;;;;17.93;12.90;;;12.80;50.70;;;;;;5010874;28;20224;-47
2021/11/10 10:36:45;;;;;;;15.17;13.50;;;12.80;50.60;;;;;;5006600;28;20442;-47
2021/11/10 10:39:15;;;;;;;18.20;13.57;;;12.80;50.80;;;;;;4996973;28;20508;-48
2021/11/10 10:41:47;;;;;;;15.90;13.40;;;12.70;50.60;;;;;;5012070;28;21407;-45
2021/11/10 10:44:16;;;;;;;16.80;12.80;;;12.70;50.80;;;;;;5013047;28;20417;-49
2021/11/10 10:46:47;;;;;;;14.80;12.70;;;12.60;50.80;;;;;;5010580;28;20433;-45
2021/11/10 10:49:20;;;;;;;19.37;14.00;;;12.60;51.10;;;;;;5011960;28;21059;-48
2021/11/10 10:51:51;;;;;;;16.93;13.80;;;12.60;51.80;;;;;;5010122;28;20451;-49
2021/11/10 10:54:18;;;;;;;17.50;13.10;;;12.60;51.80;;;;;;5012943;28;20524;-49
2021/11/10 10:56:54;;;;;;;13.53;12.03;;;12.60;51.80;;;;;;5013021;28;21145;-49
2021/11/10 10:59:23;;;;;;;16.80;13.40;;;12.70;52.10;;;;;;5010454;28;20574;-45
2021/11/10 11:01:58;;;;;;;17.60;13.70;;;12.70;52.20;;;;;;5005357;28;20461;-47
2021/11/10 11:04:28;;;;;;;19.80;13.37;;;12.70;52.30;;;;;;5012663;28;20448;-49
2021/11/10 11:07:04;;;;;;;18.33;12.73;;;12.70;52.10;;;;;;5010483;28;20437;-47
2021/11/10 11:09:33;;;;;;;16.80;13.20;;;12.80;51.90;;;;;;5011803;28;20547;-48
2021/11/10 11:12:12;;;;;;;16.67;12.60;;;12.80;51.90;;;;;;5010925;28;20441;-49
2021/11/10 11:17:35;;;;;;;17.60;12.70;;;12.80;52.60;;;;;;5011812;28;20499;-45
2021/11/10 11:20:18;;;;;;;18.70;14.17;;;12.90;52.60;;;;;;5010710;28;20543;-50
2021/11/10 11:22:55;;;;;;;16.80;14.30;;;12.90;52.30;;;;;;5012478;28;20440;-47
2021/11/10 11:25:30;;;;;;;18.70;14.77;;;13.00;52.40;;;;;;5009984;28;20459;-47
2021/11/10 11:28:03;;;;;;;18.83;13.47;;;13.00;52.30;;;;;;5004479;28;20536;-46
2021/11/10 11:30:32;;;;;;;17.60;13.43;;;12.90;52.40;;;;;;5010623;28;20469;-45
2021/11/10 11:33:00;;;;;;;17.80;14.90;;;12.90;52.10;;;;;;4999811;28;20934;-48
2021/11/10 11:35:38;;;;;;;19.60;15.37;;;13.00;51.60;;;;;;5010091;28;20923;-46
2021/11/10 11:38:15;;;;;;;21.17;14.47;;;13.20;51.50;;;;;;5003763;28;20499;-46
2021/11/10 11:40:42;;;;;;;16.30;14.17;;;13.30;50.90;;;;;;5007909;28;20440;-49
2021/11/10 11:43:10;;;;;;;16.83;14.60;;;13.40;50.90;;;;;;5007982;28;20449;-49
2021/11/10 11:45:40;;;;;;;16.40;13.47;;;13.40;50.80;;;;;;5016155;28;20445;-49
2021/11/10 11:48:07;;;;;;;16.30;14.70;;;13.20;50.70;;;;;;5016735;28;20444;-50
2021/11/10 11:50:33;;;;;;;20.33;14.83;;;13.10;51.00;;;;;;5009425;28;20432;-49
2021/11/10 11:52:59;;;;;;;20.20;15.50;;;13.10;51.10;;;;;;5007669;28;20542;-46
2021/11/10 11:55:32;;;;;;;19.17;14.60;;;13.30;51.40;;;;;;4997393;28;20595;-49
2021/11/10 11:58:07;;;;;;;17.80;14.53;;;13.40;51.20;;;;;;5014206;28;20491;-49
2021/11/10 12:00:39;;;;;;;16.10;13.77;;;13.60;51.30;;;;;;5009867;28;20436;-49
2021/11/10 12:03:29;;;;;;;16.70;13.43;;;13.70;51.10;;;;;;5011295;28;20802;-46
2021/11/10 12:06:01;;;;;;;15.23;13.67;;;13.80;51.10;;;;;;5011859;28;20491;-47
2021/11/10 12:08:41;;;;;;;16.17;13.80;;;13.90;51.20;;;;;;5001919;28;20482;-47
2021/11/10 12:11:19;;;;;;;16.20;13.63;;;13.90;50.40;;;;;;5010126;28;20491;-47
2021/11/10 12:14:06;;;;;;;16.40;14.40;;;13.90;50.50;;;;;;5011889;28;20927;-47
2021/11/10 12:16:57;;;;;;;21.40;15.30;;;13.90;50.70;;;;;;5010170;28;20440;-46
2021/11/10 12:19:38;;;;;;;16.53;14.13;;;14.00;51.20;;;;;;5005823;28;20457;-49
2021/11/10 12:22:21;;;;;;;17.20;14.37;;;14.20;50.70;;;;;;5018265;28;20463;-47
2021/11/10 12:24:51;;;;;;;16.07;14.33;;;14.20;50.20;;;;;;5010156;28;20445;-45
2021/11/10 12:27:18;;;;;;;18.83;15.07;;;14.30;50.00;;;;;;5010834;28;20448;-46
2021/11/10 12:29:52;;;;;;;22.47;15.20;;;14.30;50.20;;;;;;5010386;28;20444;-48
2021/11/10 12:32:23;;;;;;;22.13;14.87;;;14.30;50.00;;;;;;5009236;28;20813;-45
2021/11/10 12:34:52;;;;;;;18.20;13.60;;;14.40;50.60;;;;;;5009588;28;20459;-49
2021/11/10 12:37:36;;;;;;;16.20;12.97;;;14.60;50.70;;;;;;4992218;28;20496;-47
2021/11/10 12:40:14;;;;;;;17.60;13.50;;;14.80;50.90;;;;;;5004709;28;20539;-44
2021/11/10 12:42:56;;;;;;;15.60;12.87;;;14.90;50.10;;;;;;5010589;28;20440;-45
2021/11/10 12:45:59;;;;;;;15.60;13.90;;;15.10;50.30;;;;;;5004607;28;20441;-48
2021/11/10 12:48:44;;;;;;;17.13;13.00;;;15.40;49.30;;;;;;5019061;28;20476;-46
2021/11/10 12:51:17;;;;;;;15.40;13.67;;;15.60;48.40;;;;;;5000609;28;20445;-48